sensor_id;sensor_type;location;lat;lon;timestamp;temperature;humidity
18593;DHT22;9426;54.118;17.948;2024-02-26T00:04:52;3.00;99.90
18593;DHT22;9426;54.118;17.948;2024-02-26T00:10:16;2.90;99.90
18593;DHT22;9426;54.118;17.948;2024-02-26T00:15:40;2.90;99.90
18593;DHT22;9426;54.118;17.948;2024-02-26T00:21:04;2.70;99.90
18593;DHT22;9426;54.118;17.948;2024-02-26T00:26:28;2.50;99.90
18593;DHT22;9426;54.118;17.948;2024-02-26T00:31:53;2.40;99.90
18593;DHT22;9426;54.118;17.948;2024-02-26T00:37:16;2.40;99.90
18593;DHT22;9426;54.118;17.948;2024-02-26T00:42:40;2.30;99.90
18593;DHT22;9426;54.118;17.948;2024-02-26T00:48:09;2.20;99.90
18593;DHT22;9426;54.118;17.948;2024-02-26T00:53:33;2.10;99.90
18593;DHT22;9426;54.118;17.948;2024-02-26T00:58:56;2.00;99.90
18593;DHT22;9426;54.118;17.948;2024-02-26T01:04:21;1.90;99.90
18593;DHT22;9426;54.118;17.948;2024-02-26T01:09:44;1.80;99.90
18593;DHT22;9426;54.118;17.948;2024-02-26T01:15:09;1.70;99.90
18593;DHT22;9426;54.118;17.948;2024-02-26T01:20:34;1.80;99.90
18593;DHT22;9426;54.118;17.948;2024-02-26T01:25:58;1.90;99.90
18593;DHT22;9426;54.118;17.948;2024-02-26T01:31:22;2.00;99.90
18593;DHT22;9426;54.118;17.948;2024-02-26T01:36:47;2.20;99.90
18593;DHT22;9426;54.118;17.948;2024-02-26T01:42:12;2.30;99.90
18593;DHT22;9426;54.118;17.948;2024-02-26T01:47:38;2.10;99.90
18593;DHT22;9426;54.118;17.948;2024-02-26T01:53:05;1.90;99.90
18593;DHT22;9426;54.118;17.948;2024-02-26T01:58:29;1.70;99.90
18593;DHT22;9426;54.118;17.948;2024-02-26T02:03:54;1.50;99.90
18593;DHT22;9426;54.118;17.948;2024-02-26T02:09:19;1.20;99.90
18593;DHT22;9426;54.118;17.948;2024-02-26T02:14:44;1.00;99.90
18593;DHT22;9426;54.118;17.948;2024-02-26T02:20:09;0.90;99.90
18593;DHT22;9426;54.118;17.948;2024-02-26T02:25:34;0.80;99.90
18593;DHT22;9426;54.118;17.948;2024-02-26T02:31:00;0.70;99.90
18593;DHT22;9426;54.118;17.948;2024-02-26T02:36:28;0.60;99.90
18593;DHT22;9426;54.118;17.948;2024-02-26T02:41:55;0.50;99.90
18593;DHT22;9426;54.118;17.948;2024-02-26T02:47:19;0.40;99.90
18593;DHT22;9426;54.118;17.948;2024-02-26T02:52:42;0.40;99.90
18593;DHT22;9426;54.118;17.948;2024-02-26T02:58:08;0.20;99.90
18593;DHT22;9426;54.118;17.948;2024-02-26T03:03:31;0.20;99.90
18593;DHT22;9426;54.118;17.948;2024-02-26T03:08:56;0.20;99.90
18593;DHT22;9426;54.118;17.948;2024-02-26T03:14:21;0.00;99.90
18593;DHT22;9426;54.118;17.948;2024-02-26T03:19:46;0.10;99.90
18593;DHT22;9426;54.118;17.948;2024-02-26T03:25:16;-0.10;99.90
18593;DHT22;9426;54.118;17.948;2024-02-26T03:30:41;-0.20;99.90
18593;DHT22;9426;54.118;17.948;2024-02-26T03:36:05;-0.30;99.90
18593;DHT22;9426;54.118;17.948;2024-02-26T03:41:29;-0.30;99.90
18593;DHT22;9426;54.118;17.948;2024-02-26T03:46:55;-0.30;99.90
18593;DHT22;9426;54.118;17.948;2024-02-26T03:52:18;-0.30;99.90
18593;DHT22;9426;54.118;17.948;2024-02-26T03:57:42;-0.10;99.90
18593;DHT22;9426;54.118;17.948;2024-02-26T04:03:08;-0.10;99.90
18593;DHT22;9426;54.118;17.948;2024-02-26T04:08:31;-0.20;99.90
18593;DHT22;9426;54.118;17.948;2024-02-26T04:13:55;-0.20;99.90
18593;DHT22;9426;54.118;17.948;2024-02-26T04:19:20;-0.20;99.90
18593;DHT22;9426;54.118;17.948;2024-02-26T04:24:46;-0.20;99.90
18593;DHT22;9426;54.118;17.948;2024-02-26T04:30:10;-0.30;99.90
18593;DHT22;9426;54.118;17.948;2024-02-26T04:35:35;-0.30;99.90
18593;DHT22;9426;54.118;17.948;2024-02-26T04:40:59;-0.10;99.90
18593;DHT22;9426;54.118;17.948;2024-02-26T04:46:22;0.00;99.90
18593;DHT22;9426;54.118;17.948;2024-02-26T04:51:47;0.10;99.90
18593;DHT22;9426;54.118;17.948;2024-02-26T04:57:11;0.10;99.90
18593;DHT22;9426;54.118;17.948;2024-02-26T05:02:34;0.00;99.90
18593;DHT22;9426;54.118;17.948;2024-02-26T05:08:01;-0.10;99.90
18593;DHT22;9426;54.118;17.948;2024-02-26T05:13:26;-0.20;99.90
18593;DHT22;9426;54.118;17.948;2024-02-26T05:18:50;-0.30;99.90
18593;DHT22;9426;54.118;17.948;2024-02-26T05:24:14;-0.50;99.90
18593;DHT22;9426;54.118;17.948;2024-02-26T05:29:39;-0.60;99.90
18593;DHT22;9426;54.118;17.948;2024-02-26T05:35:03;-0.60;99.90
18593;DHT22;9426;54.118;17.948;2024-02-26T05:40:29;-0.70;99.90
18593;DHT22;9426;54.118;17.948;2024-02-26T05:45:53;-0.70;99.90
18593;DHT22;9426;54.118;17.948;2024-02-26T05:51:17;-0.70;99.90
18593;DHT22;9426;54.118;17.948;2024-02-26T05:56:42;-0.50;99.90
18593;DHT22;9426;54.118;17.948;2024-02-26T06:02:06;-0.50;99.90
18593;DHT22;9426;54.118;17.948;2024-02-26T06:07:32;-0.40;99.90
18593;DHT22;9426;54.118;17.948;2024-02-26T06:12:56;-0.30;99.90
18593;DHT22;9426;54.118;17.948;2024-02-26T06:18:20;-0.30;99.90
18593;DHT22;9426;54.118;17.948;2024-02-26T06:23:44;-0.20;99.90
18593;DHT22;9426;54.118;17.948;2024-02-26T06:29:09;0.00;99.90
18593;DHT22;9426;54.118;17.948;2024-02-26T06:34:32;0.10;99.90
18593;DHT22;9426;54.118;17.948;2024-02-26T06:40:20;0.20;99.90
18593;DHT22;9426;54.118;17.948;2024-02-26T06:45:45;0.30;99.90
18593;DHT22;9426;54.118;17.948;2024-02-26T06:51:10;0.40;99.90
18593;DHT22;9426;54.118;17.948;2024-02-26T06:56:34;0.50;99.90
18593;DHT22;9426;54.118;17.948;2024-02-26T07:02:00;0.60;99.90
18593;DHT22;9426;54.118;17.948;2024-02-26T07:07:25;0.70;99.90
18593;DHT22;9426;54.118;17.948;2024-02-26T07:12:49;0.80;99.90
18593;DHT22;9426;54.118;17.948;2024-02-26T07:18:14;1.00;99.90
18593;DHT22;9426;54.118;17.948;2024-02-26T07:23:38;1.10;99.90
18593;DHT22;9426;54.118;17.948;2024-02-26T07:29:02;1.20;99.90
18593;DHT22;9426;54.118;17.948;2024-02-26T07:34:27;1.40;99.90
18593;DHT22;9426;54.118;17.948;2024-02-26T07:39:52;1.60;99.90
18593;DHT22;9426;54.118;17.948;2024-02-26T07:45:17;1.80;99.90
18593;DHT22;9426;54.118;17.948;2024-02-26T07:50:43;2.10;99.90
18593;DHT22;9426;54.118;17.948;2024-02-26T07:56:07;2.40;99.90
18593;DHT22;9426;54.118;17.948;2024-02-26T08:01:31;2.70;99.90
18593;DHT22;9426;54.118;17.948;2024-02-26T08:06:58;2.90;99.90
18593;DHT22;9426;54.118;17.948;2024-02-26T08:12:21;3.30;99.90
18593;DHT22;9426;54.118;17.948;2024-02-26T08:17:45;3.50;99.90
18593;DHT22;9426;54.118;17.948;2024-02-26T08:23:11;3.80;99.90
18593;DHT22;9426;54.118;17.948;2024-02-26T08:28:35;4.10;99.90
18593;DHT22;9426;54.118;17.948;2024-02-26T08:33:59;4.30;99.90
18593;DHT22;9426;54.118;17.948;2024-02-26T08:39:25;4.60;99.90
18593;DHT22;9426;54.118;17.948;2024-02-26T08:44:49;4.80;99.90
18593;DHT22;9426;54.118;17.948;2024-02-26T08:50:14;4.90;99.90
18593;DHT22;9426;54.118;17.948;2024-02-26T08:55:41;5.20;99.90
18593;DHT22;9426;54.118;17.948;2024-02-26T09:01:05;5.40;99.90
18593;DHT22;9426;54.118;17.948;2024-02-26T09:06:30;5.60;99.90
18593;DHT22;9426;54.118;17.948;2024-02-26T09:11:55;5.80;99.90
18593;DHT22;9426;54.118;17.948;2024-02-26T09:17:18;6.10;99.90
18593;DHT22;9426;54.118;17.948;2024-02-26T09:22:43;6.30;99.90
18593;DHT22;9426;54.118;17.948;2024-02-26T09:28:08;6.50;99.90
18593;DHT22;9426;54.118;17.948;2024-02-26T09:33:31;6.70;99.90
18593;DHT22;9426;54.118;17.948;2024-02-26T09:38:55;6.90;99.90
18593;DHT22;9426;54.118;17.948;2024-02-26T09:44:23;7.10;99.90
18593;DHT22;9426;54.118;17.948;2024-02-26T09:49:48;7.40;99.90
18593;DHT22;9426;54.118;17.948;2024-02-26T09:55:11;7.60;99.90
18593;DHT22;9426;54.118;17.948;2024-02-26T10:00:37;7.80;99.90
18593;DHT22;9426;54.118;17.948;2024-02-26T10:06:03;8.10;99.90
18593;DHT22;9426;54.118;17.948;2024-02-26T10:11:28;8.30;99.90
18593;DHT22;9426;54.118;17.948;2024-02-26T10:16:54;8.50;99.90
18593;DHT22;9426;54.118;17.948;2024-02-26T10:22:17;8.70;99.90
18593;DHT22;9426;54.118;17.948;2024-02-26T10:27:41;8.90;99.90
18593;DHT22;9426;54.118;17.948;2024-02-26T10:33:07;9.10;99.90
18593;DHT22;9426;54.118;17.948;2024-02-26T10:38:32;9.40;99.90
18593;DHT22;9426;54.118;17.948;2024-02-26T10:43:55;9.80;99.90
18593;DHT22;9426;54.118;17.948;2024-02-26T10:49:21;10.00;99.90
18593;DHT22;9426;54.118;17.948;2024-02-26T10:54:47;10.30;99.90
18593;DHT22;9426;54.118;17.948;2024-02-26T11:00:15;10.70;99.90
18593;DHT22;9426;54.118;17.948;2024-02-26T11:05:41;12.70;99.90
18593;DHT22;9426;54.118;17.948;2024-02-26T11:11:05;15.20;99.90
18593;DHT22;9426;54.118;17.948;2024-02-26T11:16:30;16.80;99.90
18593;DHT22;9426;54.118;17.948;2024-02-26T11:21:55;18.40;99.90
18593;DHT22;9426;54.118;17.948;2024-02-26T11:27:23;19.00;99.90
18593;DHT22;9426;54.118;17.948;2024-02-26T11:32:48;20.00;99.90
18593;DHT22;9426;54.118;17.948;2024-02-26T11:38:20;21.10;99.90
18593;DHT22;9426;54.118;17.948;2024-02-26T11:43:50;20.90;99.90
18593;DHT22;9426;54.118;17.948;2024-02-26T11:49:31;20.90;99.90
18593;DHT22;9426;54.118;17.948;2024-02-26T11:54:57;20.70;99.90
18593;DHT22;9426;54.118;17.948;2024-02-26T12:00:22;20.60;99.90
18593;DHT22;9426;54.118;17.948;2024-02-26T12:05:46;21.50;99.90
18593;DHT22;9426;54.118;17.948;2024-02-26T12:11:16;21.40;99.90
18593;DHT22;9426;54.118;17.948;2024-02-26T12:16:40;21.10;99.90
18593;DHT22;9426;54.118;17.948;2024-02-26T12:22:07;20.40;99.90
18593;DHT22;9426;54.118;17.948;2024-02-26T12:27:32;20.10;99.90
18593;DHT22;9426;54.118;17.948;2024-02-26T12:32:56;19.80;99.90
18593;DHT22;9426;54.118;17.948;2024-02-26T12:38:25;19.60;99.90
18593;DHT22;9426;54.118;17.948;2024-02-26T12:43:51;19.70;99.90
18593;DHT22;9426;54.118;17.948;2024-02-26T12:49:16;19.20;99.90
18593;DHT22;9426;54.118;17.948;2024-02-26T12:54:40;18.50;99.90
18593;DHT22;9426;54.118;17.948;2024-02-26T13:00:07;17.70;99.90
18593;DHT22;9426;54.118;17.948;2024-02-26T13:05:33;16.00;99.90
18593;DHT22;9426;54.118;17.948;2024-02-26T13:10:59;15.00;99.90
18593;DHT22;9426;54.118;17.948;2024-02-26T13:16:25;14.70;99.90
18593;DHT22;9426;54.118;17.948;2024-02-26T13:21:49;14.70;99.90
18593;DHT22;9426;54.118;17.948;2024-02-26T13:27:21;14.30;99.90
18593;DHT22;9426;54.118;17.948;2024-02-26T13:32:46;14.10;99.90
18593;DHT22;9426;54.118;17.948;2024-02-26T13:38:11;14.70;99.90
18593;DHT22;9426;54.118;17.948;2024-02-26T13:43:37;15.20;99.90
18593;DHT22;9426;54.118;17.948;2024-02-26T13:49:03;15.30;99.90
18593;DHT22;9426;54.118;17.948;2024-02-26T13:54:26;14.90;99.90
18593;DHT22;9426;54.118;17.948;2024-02-26T13:59:50;14.10;99.90
18593;DHT22;9426;54.118;17.948;2024-02-26T14:05:15;13.60;99.90
18593;DHT22;9426;54.118;17.948;2024-02-26T14:10:39;13.20;99.90
18593;DHT22;9426;54.118;17.948;2024-02-26T14:16:03;12.80;99.90
18593;DHT22;9426;54.118;17.948;2024-02-26T14:21:28;12.60;99.90
18593;DHT22;9426;54.118;17.948;2024-02-26T14:26:53;12.50;99.90
18593;DHT22;9426;54.118;17.948;2024-02-26T14:32:16;12.30;99.90
18593;DHT22;9426;54.118;17.948;2024-02-26T14:37:42;12.10;99.90
18593;DHT22;9426;54.118;17.948;2024-02-26T14:43:07;11.90;99.90
18593;DHT22;9426;54.118;17.948;2024-02-26T14:48:32;11.60;99.90
18593;DHT22;9426;54.118;17.948;2024-02-26T14:53:57;11.30;99.90
18593;DHT22;9426;54.118;17.948;2024-02-26T14:59:25;11.00;99.90
18593;DHT22;9426;54.118;17.948;2024-02-26T15:04:49;10.80;99.90
18593;DHT22;9426;54.118;17.948;2024-02-26T15:10:14;10.50;99.90
18593;DHT22;9426;54.118;17.948;2024-02-26T15:15:38;10.20;99.90
18593;DHT22;9426;54.118;17.948;2024-02-26T15:21:03;10.00;99.90
18593;DHT22;9426;54.118;17.948;2024-02-26T15:26:30;9.80;99.90
18593;DHT22;9426;54.118;17.948;2024-02-26T15:31:54;9.50;99.90
18593;DHT22;9426;54.118;17.948;2024-02-26T15:37:17;9.30;99.90
18593;DHT22;9426;54.118;17.948;2024-02-26T15:42:42;9.00;99.90
18593;DHT22;9426;54.118;17.948;2024-02-26T15:48:07;8.80;99.90
18593;DHT22;9426;54.118;17.948;2024-02-26T15:53:32;8.60;99.90
18593;DHT22;9426;54.118;17.948;2024-02-26T15:58:57;8.40;99.90
18593;DHT22;9426;54.118;17.948;2024-02-26T16:04:20;8.30;99.90
18593;DHT22;9426;54.118;17.948;2024-02-26T16:09:44;8.10;99.90
18593;DHT22;9426;54.118;17.948;2024-02-26T16:15:14;8.00;99.90
18593;DHT22;9426;54.118;17.948;2024-02-26T16:20:38;7.90;99.90
18593;DHT22;9426;54.118;17.948;2024-02-26T16:26:02;7.80;99.90
18593;DHT22;9426;54.118;17.948;2024-02-26T16:31:27;7.70;99.90
18593;DHT22;9426;54.118;17.948;2024-02-26T16:36:52;7.70;99.90
18593;DHT22;9426;54.118;17.948;2024-02-26T16:42:18;7.60;99.90
18593;DHT22;9426;54.118;17.948;2024-02-26T16:47:46;7.50;99.90
18593;DHT22;9426;54.118;17.948;2024-02-26T16:53:12;7.40;99.90
18593;DHT22;9426;54.118;17.948;2024-02-26T16:58:36;7.40;99.90
18593;DHT22;9426;54.118;17.948;2024-02-26T17:04:04;7.30;99.90
18593;DHT22;9426;54.118;17.948;2024-02-26T17:09:27;7.20;99.90
18593;DHT22;9426;54.118;17.948;2024-02-26T17:14:51;7.20;99.90
18593;DHT22;9426;54.118;17.948;2024-02-26T17:20:16;7.20;99.90
18593;DHT22;9426;54.118;17.948;2024-02-26T17:25:40;7.20;99.90
18593;DHT22;9426;54.118;17.948;2024-02-26T17:31:05;7.10;99.90
18593;DHT22;9426;54.118;17.948;2024-02-26T17:36:31;7.00;99.90
18593;DHT22;9426;54.118;17.948;2024-02-26T17:41:57;7.00;99.90
18593;DHT22;9426;54.118;17.948;2024-02-26T17:47:21;6.90;99.90
18593;DHT22;9426;54.118;17.948;2024-02-26T17:52:46;6.90;99.90
18593;DHT22;9426;54.118;17.948;2024-02-26T17:58:11;6.80;99.90
18593;DHT22;9426;54.118;17.948;2024-02-26T18:03:41;7.00;99.90
18593;DHT22;9426;54.118;17.948;2024-02-26T18:09:07;6.80;99.90
18593;DHT22;9426;54.118;17.948;2024-02-26T18:14:31;6.70;99.90
18593;DHT22;9426;54.118;17.948;2024-02-26T18:19:55;6.70;99.90
18593;DHT22;9426;54.118;17.948;2024-02-26T18:25:20;6.60;99.90
18593;DHT22;9426;54.118;17.948;2024-02-26T18:30:46;6.60;99.90
18593;DHT22;9426;54.118;17.948;2024-02-26T18:36:10;6.50;99.90
18593;DHT22;9426;54.118;17.948;2024-02-26T18:41:35;6.50;99.90
18593;DHT22;9426;54.118;17.948;2024-02-26T18:47:00;6.40;99.90
18593;DHT22;9426;54.118;17.948;2024-02-26T18:52:23;6.40;99.90
18593;DHT22;9426;54.118;17.948;2024-02-26T18:57:48;6.40;99.90
18593;DHT22;9426;54.118;17.948;2024-02-26T19:03:11;6.40;99.90
18593;DHT22;9426;54.118;17.948;2024-02-26T19:08:35;6.40;99.90
18593;DHT22;9426;54.118;17.948;2024-02-26T19:14:00;6.40;99.90
18593;DHT22;9426;54.118;17.948;2024-02-26T19:19:25;6.40;99.90
18593;DHT22;9426;54.118;17.948;2024-02-26T19:24:49;6.40;99.90
18593;DHT22;9426;54.118;17.948;2024-02-26T19:30:15;6.40;99.90
18593;DHT22;9426;54.118;17.948;2024-02-26T19:35:39;6.40;99.90
18593;DHT22;9426;54.118;17.948;2024-02-26T19:41:03;6.40;99.90
18593;DHT22;9426;54.118;17.948;2024-02-26T19:46:27;6.40;99.90
18593;DHT22;9426;54.118;17.948;2024-02-26T19:51:51;6.40;99.90
18593;DHT22;9426;54.118;17.948;2024-02-26T19:57:15;6.50;99.90
18593;DHT22;9426;54.118;17.948;2024-02-26T20:02:40;6.50;99.90
18593;DHT22;9426;54.118;17.948;2024-02-26T20:08:04;6.50;99.90
18593;DHT22;9426;54.118;17.948;2024-02-26T20:13:35;6.50;99.90
18593;DHT22;9426;54.118;17.948;2024-02-26T20:19:18;6.50;99.90
18593;DHT22;9426;54.118;17.948;2024-02-26T20:24:44;6.50;99.90
18593;DHT22;9426;54.118;17.948;2024-02-26T20:30:10;6.50;99.90
18593;DHT22;9426;54.118;17.948;2024-02-26T20:35:47;6.50;99.90
18593;DHT22;9426;54.118;17.948;2024-02-26T20:41:11;6.50;99.90
18593;DHT22;9426;54.118;17.948;2024-02-26T20:46:39;6.50;99.90
18593;DHT22;9426;54.118;17.948;2024-02-26T20:52:06;6.50;99.90
18593;DHT22;9426;54.118;17.948;2024-02-26T20:57:30;6.50;99.90
18593;DHT22;9426;54.118;17.948;2024-02-26T21:02:58;6.50;99.90
18593;DHT22;9426;54.118;17.948;2024-02-26T21:08:27;6.50;99.90
18593;DHT22;9426;54.118;17.948;2024-02-26T21:13:54;6.50;99.90
18593;DHT22;9426;54.118;17.948;2024-02-26T21:19:22;6.40;99.90
18593;DHT22;9426;54.118;17.948;2024-02-26T21:24:52;6.40;99.90
18593;DHT22;9426;54.118;17.948;2024-02-26T21:30:17;6.40;99.90
18593;DHT22;9426;54.118;17.948;2024-02-26T21:35:43;6.40;99.90
18593;DHT22;9426;54.118;17.948;2024-02-26T21:41:14;6.40;99.90
18593;DHT22;9426;54.118;17.948;2024-02-26T21:47:02;6.40;99.90
18593;DHT22;9426;54.118;17.948;2024-02-26T21:52:34;6.40;99.90
18593;DHT22;9426;54.118;17.948;2024-02-26T21:58:11;6.40;99.90
18593;DHT22;9426;54.118;17.948;2024-02-26T22:03:41;6.30;99.90
18593;DHT22;9426;54.118;17.948;2024-02-26T22:09:09;6.30;99.90
18593;DHT22;9426;54.118;17.948;2024-02-26T22:14:35;6.10;99.90
18593;DHT22;9426;54.118;17.948;2024-02-26T22:19:59;5.90;99.90
18593;DHT22;9426;54.118;17.948;2024-02-26T22:25:24;5.80;99.90
18593;DHT22;9426;54.118;17.948;2024-02-26T22:30:48;5.70;99.90
18593;DHT22;9426;54.118;17.948;2024-02-26T22:36:12;5.70;99.90
18593;DHT22;9426;54.118;17.948;2024-02-26T22:41:40;5.70;99.90
18593;DHT22;9426;54.118;17.948;2024-02-26T22:47:06;5.70;99.90
18593;DHT22;9426;54.118;17.948;2024-02-26T22:52:31;5.70;99.90
18593;DHT22;9426;54.118;17.948;2024-02-26T22:57:54;5.60;99.90
18593;DHT22;9426;54.118;17.948;2024-02-26T23:03:23;5.70;99.90
18593;DHT22;9426;54.118;17.948;2024-02-26T23:08:48;5.70;99.90
18593;DHT22;9426;54.118;17.948;2024-02-26T23:14:15;5.70;99.90
18593;DHT22;9426;54.118;17.948;2024-02-26T23:19:42;5.80;99.90
18593;DHT22;9426;54.118;17.948;2024-02-26T23:25:08;5.80;99.90
18593;DHT22;9426;54.118;17.948;2024-02-26T23:30:32;5.80;99.90
18593;DHT22;9426;54.118;17.948;2024-02-26T23:35:57;5.90;99.90
18593;DHT22;9426;54.118;17.948;2024-02-26T23:41:20;5.90;99.90
18593;DHT22;9426;54.118;17.948;2024-02-26T23:46:44;6.00;99.90
18593;DHT22;9426;54.118;17.948;2024-02-26T23:52:10;6.00;99.90
18593;DHT22;9426;54.118;17.948;2024-02-26T23:57:34;5.90;99.90
